Камери на живо
ЦПИ
02 9374270
ЦКИВП
02 9371284
ЦКИВП
02 9374762
Партньори:
системи за видеонаблюдение
telenor
telesys
УЧИЛИЩЕ ЗА ПИЛОТИ ОЛИМПИЯ ЕР
Еър Ситис ЕООД
Авиационен Център Долна Баня
Камери на живо - sub stream
METAR for:LBSF (Sofia Intl, SO, BG)
Text:LBSF 201300Z VRB06KT 9999 FEW060 35/13 Q1010 NOSIG
Conditions at:1300 UTC 20 Jul 2024
Temperature: 35.0°C ( 95°F)
Dewpoint: 13.0°C ( 55°F) [RH = 27%]
Pressure (altimeter):29.82 inches Hg (1010.0 mb)
Winds:variable direction winds at 7 MPH (6 knots; 3.1 m/s)
Visibility:6 or more sm (10+ km)
Ceiling:at least 12,000 feet AGL
Clouds:few clouds at 6000 feet AGL

METAR for:LBPD (Plovdiv Arpt, PL, BG)
Text:LBPD 201300Z AUTO 14008KT 080V200 9999 FEW130/// 37/14 Q1008 NOSIG
Conditions at:1300 UTC 20 Jul 2024
Temperature: 37.0°C ( 99°F)
Dewpoint: 14.0°C ( 57°F) [RH = 25%]
Pressure (altimeter):29.76 inches Hg (1008.0 mb)
Winds:from the SE (140 degrees) at 9 MPH (8 knots; 4.1 m/s)
Visibility:6 or more sm (10+ km)
Ceiling:at least 12,000 feet AGL
Clouds:few clouds at 13000 feet AGL

METAR for:LBWN (Varna Intl, VA, BG)
Text:LBWN 201300Z 11016KT 9999 FEW040 32/20 Q1009 NOSIG
Conditions at:1300 UTC 20 Jul 2024
Temperature: 32.0°C ( 90°F)
Dewpoint: 20.0°C ( 68°F) [RH = 49%]
Pressure (altimeter):29.79 inches Hg (1009.0 mb)
Winds:from the ESE (110 degrees) at 18 MPH (16 knots; 8.2 m/s)
Visibility:6 or more sm (10+ km)
Ceiling:at least 12,000 feet AGL
Clouds:few clouds at 4000 feet AGL

METAR for:LBBG (Burgas Arpt, BU, BG)
Text:LBBG 201300Z 12013KT 9999 FEW033TCU 32/21 Q1009 NOSIG
Conditions at:1300 UTC 20 Jul 2024
Temperature: 32.0°C ( 90°F)
Dewpoint: 21.0°C ( 70°F) [RH = 52%]
Pressure (altimeter):29.79 inches Hg (1009.0 mb)
Winds:from the ESE (120 degrees) at 15 MPH (13 knots; 6.7 m/s)
Visibility:6 or more sm (10+ km)
Ceiling:at least 12,000 feet AGL
Clouds:few clouds at 3300 feet AGL

METAR for:LBGO (Gorna Orechovista Arpt, LO, BG)
Text:LBGO 201300Z AUTO 18005KT 090V260 9999 NCD 36/16 Q1008 NOSIG
Conditions at:1300 UTC 20 Jul 2024
Temperature: 36.0°C ( 97°F)
Dewpoint: 16.0°C ( 61°F) [RH = 31%]
Pressure (altimeter):29.76 inches Hg (1008.0 mb)
Winds:from the S (180 degrees) at 6 MPH (5 knots; 2.6 m/s)
Visibility:6 or more sm (10+ km)
Ceiling:at least 12,000 feet AGL
Clouds:sky clear below 12,000 feet AGL

METAR for:LBPG (Graf Ignatievo(AB), PL, BG)
Text:LBPG 201200Z 09008KT 9999 FEW050 36/15 Q1009
Conditions at:1200 UTC 20 Jul 2024
Temperature: 36.0°C ( 97°F)
Dewpoint: 15.0°C ( 59°F) [RH = 29%]
Pressure (altimeter):29.79 inches Hg (1009.0 mb)
Winds:from the E (90 degrees) at 9 MPH (8 knots; 4.1 m/s)
Visibility:6 or more sm (10+ km)
Ceiling:at least 12,000 feet AGL
Clouds:few clouds at 5000 feet AGL

METAR for:LBIA (Bezmer(AB), BU, BG)
Text:LBIA 201300Z 10004KT 9999 SCT050 37/16 Q1008
Conditions at:1300 UTC 20 Jul 2024
Temperature: 37.0°C ( 99°F)
Dewpoint: 16.0°C ( 61°F) [RH = 29%]
Pressure (altimeter):29.76 inches Hg (1008.0 mb)
Winds:from the E (100 degrees) at 5 MPH (4 knots; 2.1 m/s)
Visibility:6 or more sm (10+ km)
Ceiling:at least 12,000 feet AGL
Clouds:scattered clouds at 5000 feet AGL